sensor_id;sensor_type;location;lat;lon;timestamp;temperature;humidity
30234;DHT22;17046;52.074;4.748;2022-12-18T00:01:35;-2.90;99.90
30234;DHT22;17046;52.074;4.748;2022-12-18T00:04:04;-2.90;99.90
30234;DHT22;17046;52.074;4.748;2022-12-18T00:06:30;-3.00;99.90
30234;DHT22;17046;52.074;4.748;2022-12-18T00:08:58;-3.00;99.90
30234;DHT22;17046;52.074;4.748;2022-12-18T00:11:27;-3.00;99.90
30234;DHT22;17046;52.074;4.748;2022-12-18T00:13:55;-3.00;99.90
30234;DHT22;17046;52.074;4.748;2022-12-18T00:16:22;-3.00;99.90
30234;DHT22;17046;52.074;4.748;2022-12-18T00:18:50;-3.10;99.90
30234;DHT22;17046;52.074;4.748;2022-12-18T00:21:16;-3.00;99.90
30234;DHT22;17046;52.074;4.748;2022-12-18T00:23:43;-3.10;99.90
30234;DHT22;17046;52.074;4.748;2022-12-18T00:26:27;-3.10;99.90
30234;DHT22;17046;52.074;4.748;2022-12-18T00:28:53;-3.10;99.90
30234;DHT22;17046;52.074;4.748;2022-12-18T00:31:22;-3.10;99.90
30234;DHT22;17046;52.074;4.748;2022-12-18T00:33:48;-3.10;99.90
30234;DHT22;17046;52.074;4.748;2022-12-18T00:36:16;-3.10;99.90
30234;DHT22;17046;52.074;4.748;2022-12-18T00:38:44;-3.10;99.90
30234;DHT22;17046;52.074;4.748;2022-12-18T00:41:11;-3.20;99.90
30234;DHT22;17046;52.074;4.748;2022-12-18T00:43:37;-3.20;99.90
30234;DHT22;17046;52.074;4.748;2022-12-18T00:46:03;-3.20;99.90
30234;DHT22;17046;52.074;4.748;2022-12-18T00:48:29;-3.20;99.90
30234;DHT22;17046;52.074;4.748;2022-12-18T00:50:54;-3.30;99.90
30234;DHT22;17046;52.074;4.748;2022-12-18T00:53:20;-3.30;99.90
30234;DHT22;17046;52.074;4.748;2022-12-18T00:55:46;-3.30;99.90
30234;DHT22;17046;52.074;4.748;2022-12-18T00:58:14;-3.30;99.90
30234;DHT22;17046;52.074;4.748;2022-12-18T01:00:39;-3.30;99.90
30234;DHT22;17046;52.074;4.748;2022-12-18T01:03:05;-3.30;99.90
30234;DHT22;17046;52.074;4.748;2022-12-18T01:05:31;-3.30;99.90
30234;DHT22;17046;52.074;4.748;2022-12-18T01:07:57;-3.30;99.90
30234;DHT22;17046;52.074;4.748;2022-12-18T01:10:24;-3.30;99.90
30234;DHT22;17046;52.074;4.748;2022-12-18T01:12:50;-3.30;99.90
30234;DHT22;17046;52.074;4.748;2022-12-18T01:15:16;-3.30;99.90
30234;DHT22;17046;52.074;4.748;2022-12-18T01:17:42;-3.30;99.90
30234;DHT22;17046;52.074;4.748;2022-12-18T01:20:08;-3.30;99.90
30234;DHT22;17046;52.074;4.748;2022-12-18T01:22:35;-3.30;99.90
30234;DHT22;17046;52.074;4.748;2022-12-18T01:25:01;-3.30;99.90
30234;DHT22;17046;52.074;4.748;2022-12-18T01:27:26;-3.40;99.90
30234;DHT22;17046;52.074;4.748;2022-12-18T01:29:52;-3.40;99.90
30234;DHT22;17046;52.074;4.748;2022-12-18T01:32:17;-3.40;99.90
30234;DHT22;17046;52.074;4.748;2022-12-18T01:34:44;-3.30;99.90
30234;DHT22;17046;52.074;4.748;2022-12-18T01:37:09;-3.30;99.90
30234;DHT22;17046;52.074;4.748;2022-12-18T01:39:35;-3.40;99.90
30234;DHT22;17046;52.074;4.748;2022-12-18T01:42:12;-3.40;99.90
30234;DHT22;17046;52.074;4.748;2022-12-18T01:49:57;-3.40;99.90
30234;DHT22;17046;52.074;4.748;2022-12-18T01:52:26;-3.40;99.90
30234;DHT22;17046;52.074;4.748;2022-12-18T01:54:53;-3.40;99.90
30234;DHT22;17046;52.074;4.748;2022-12-18T01:57:19;-3.40;99.90
30234;DHT22;17046;52.074;4.748;2022-12-18T01:59:50;-3.40;99.90
30234;DHT22;17046;52.074;4.748;2022-12-18T02:02:17;-3.40;99.90
30234;DHT22;17046;52.074;4.748;2022-12-18T02:04:42;-3.40;99.90
30234;DHT22;17046;52.074;4.748;2022-12-18T02:07:40;-3.50;99.90
30234;DHT22;17046;52.074;4.748;2022-12-18T02:10:29;-3.50;99.90
30234;DHT22;17046;52.074;4.748;2022-12-18T02:18:47;-3.40;99.90
30234;DHT22;17046;52.074;4.748;2022-12-18T02:24:08;-3.40;99.90
30234;DHT22;17046;52.074;4.748;2022-12-18T02:26:41;-3.40;99.90
30234;DHT22;17046;52.074;4.748;2022-12-18T02:29:13;-3.50;99.90
30234;DHT22;17046;52.074;4.748;2022-12-18T02:31:44;-3.40;99.90
30234;DHT22;17046;52.074;4.748;2022-12-18T02:34:11;-3.40;99.90
30234;DHT22;17046;52.074;4.748;2022-12-18T02:36:39;-3.40;99.90
30234;DHT22;17046;52.074;4.748;2022-12-18T02:39:07;-3.30;99.90
30234;DHT22;17046;52.074;4.748;2022-12-18T02:41:35;-3.40;99.90
30234;DHT22;17046;52.074;4.748;2022-12-18T02:44:07;-3.50;99.90
30234;DHT22;17046;52.074;4.748;2022-12-18T02:46:56;-3.60;99.90
30234;DHT22;17046;52.074;4.748;2022-12-18T02:49:44;-3.60;99.90
30234;DHT22;17046;52.074;4.748;2022-12-18T02:55:22;-3.60;99.90
30234;DHT22;17046;52.074;4.748;2022-12-18T02:58:04;-3.50;99.90
30234;DHT22;17046;52.074;4.748;2022-12-18T03:00:36;-3.50;99.90
30234;DHT22;17046;52.074;4.748;2022-12-18T03:03:11;-3.40;99.90
30234;DHT22;17046;52.074;4.748;2022-12-18T03:05:53;-3.60;99.90
30234;DHT22;17046;52.074;4.748;2022-12-18T03:08:26;-3.60;99.90
30234;DHT22;17046;52.074;4.748;2022-12-18T03:10:58;-3.60;99.90
30234;DHT22;17046;52.074;4.748;2022-12-18T03:13:32;-3.80;99.90
30234;DHT22;17046;52.074;4.748;2022-12-18T03:15:59;-3.80;99.90
30234;DHT22;17046;52.074;4.748;2022-12-18T03:18:36;-4.00;99.90
30234;DHT22;17046;52.074;4.748;2022-12-18T03:21:05;-4.00;99.90
30234;DHT22;17046;52.074;4.748;2022-12-18T03:23:39;-3.90;99.90
30234;DHT22;17046;52.074;4.748;2022-12-18T03:26:09;-3.80;99.90
30234;DHT22;17046;52.074;4.748;2022-12-18T03:28:51;-3.80;99.90
30234;DHT22;17046;52.074;4.748;2022-12-18T03:31:20;-3.80;99.90
30234;DHT22;17046;52.074;4.748;2022-12-18T03:33:53;-3.80;99.90
30234;DHT22;17046;52.074;4.748;2022-12-18T03:36:19;-3.90;99.90
30234;DHT22;17046;52.074;4.748;2022-12-18T03:38:45;-3.90;99.90
30234;DHT22;17046;52.074;4.748;2022-12-18T03:44:18;-4.00;99.90
30234;DHT22;17046;52.074;4.748;2022-12-18T03:47:14;-4.00;99.90
30234;DHT22;17046;52.074;4.748;2022-12-18T03:52:32;-3.90;99.90
30234;DHT22;17046;52.074;4.748;2022-12-18T03:55:01;-3.90;99.90
30234;DHT22;17046;52.074;4.748;2022-12-18T03:57:29;-3.90;99.90
30234;DHT22;17046;52.074;4.748;2022-12-18T03:59:59;-3.90;99.90
30234;DHT22;17046;52.074;4.748;2022-12-18T04:02:25;-3.90;99.90
30234;DHT22;17046;52.074;4.748;2022-12-18T04:04:53;-4.00;99.90
30234;DHT22;17046;52.074;4.748;2022-12-18T04:07:22;-4.00;99.90
30234;DHT22;17046;52.074;4.748;2022-12-18T04:09:49;-4.00;99.90
30234;DHT22;17046;52.074;4.748;2022-12-18T04:12:16;-4.10;99.90
30234;DHT22;17046;52.074;4.748;2022-12-18T04:14:41;-4.10;99.90
30234;DHT22;17046;52.074;4.748;2022-12-18T04:17:07;-4.20;99.90
30234;DHT22;17046;52.074;4.748;2022-12-18T04:19:33;-4.20;99.90
30234;DHT22;17046;52.074;4.748;2022-12-18T04:21:58;-4.20;99.90
30234;DHT22;17046;52.074;4.748;2022-12-18T04:24:24;-4.30;99.90
30234;DHT22;17046;52.074;4.748;2022-12-18T04:26:49;-4.40;99.90
30234;DHT22;17046;52.074;4.748;2022-12-18T04:29:15;-4.50;99.90
30234;DHT22;17046;52.074;4.748;2022-12-18T04:31:40;-4.60;99.90
30234;DHT22;17046;52.074;4.748;2022-12-18T04:34:06;-4.70;99.90
30234;DHT22;17046;52.074;4.748;2022-12-18T04:36:31;-4.70;99.90
30234;DHT22;17046;52.074;4.748;2022-12-18T04:38:57;-4.70;99.90
30234;DHT22;17046;52.074;4.748;2022-12-18T04:41:22;-4.80;99.90
30234;DHT22;17046;52.074;4.748;2022-12-18T04:43:48;-4.80;99.90
30234;DHT22;17046;52.074;4.748;2022-12-18T04:46:14;-4.90;99.90
30234;DHT22;17046;52.074;4.748;2022-12-18T04:48:39;-4.90;99.90
30234;DHT22;17046;52.074;4.748;2022-12-18T04:51:05;-5.00;99.90
30234;DHT22;17046;52.074;4.748;2022-12-18T04:53:31;-5.10;99.90
30234;DHT22;17046;52.074;4.748;2022-12-18T04:56:12;-5.10;99.90
30234;DHT22;17046;52.074;4.748;2022-12-18T04:58:39;-5.20;99.90
30234;DHT22;17046;52.074;4.748;2022-12-18T05:01:05;-5.20;99.90
30234;DHT22;17046;52.074;4.748;2022-12-18T05:03:32;-5.30;99.90
30234;DHT22;17046;52.074;4.748;2022-12-18T05:05:58;-5.30;99.90
30234;DHT22;17046;52.074;4.748;2022-12-18T05:08:24;-5.30;99.90
30234;DHT22;17046;52.074;4.748;2022-12-18T05:11:01;-5.30;99.90
30234;DHT22;17046;52.074;4.748;2022-12-18T05:13:27;-5.40;99.90
30234;DHT22;17046;52.074;4.748;2022-12-18T05:15:54;-5.40;99.90
30234;DHT22;17046;52.074;4.748;2022-12-18T05:18:20;-5.30;99.90
30234;DHT22;17046;52.074;4.748;2022-12-18T05:20:45;-5.40;99.90
30234;DHT22;17046;52.074;4.748;2022-12-18T05:23:11;-5.40;99.90
30234;DHT22;17046;52.074;4.748;2022-12-18T05:25:37;-5.40;99.90
30234;DHT22;17046;52.074;4.748;2022-12-18T05:28:02;-5.30;99.90
30234;DHT22;17046;52.074;4.748;2022-12-18T05:30:28;-5.30;99.90
30234;DHT22;17046;52.074;4.748;2022-12-18T05:32:53;-5.30;99.90
30234;DHT22;17046;52.074;4.748;2022-12-18T05:35:19;-5.30;99.90
30234;DHT22;17046;52.074;4.748;2022-12-18T05:37:45;-5.30;99.90
30234;DHT22;17046;52.074;4.748;2022-12-18T05:40:11;-5.40;99.90
30234;DHT22;17046;52.074;4.748;2022-12-18T05:42:37;-5.40;99.90
30234;DHT22;17046;52.074;4.748;2022-12-18T05:45:02;-5.40;99.90
30234;DHT22;17046;52.074;4.748;2022-12-18T05:47:28;-5.40;99.90
30234;DHT22;17046;52.074;4.748;2022-12-18T05:49:54;-5.50;99.90
30234;DHT22;17046;52.074;4.748;2022-12-18T05:52:20;-5.50;99.90
30234;DHT22;17046;52.074;4.748;2022-12-18T05:54:46;-5.50;99.90
30234;DHT22;17046;52.074;4.748;2022-12-18T05:57:11;-5.60;99.90
30234;DHT22;17046;52.074;4.748;2022-12-18T05:59:37;-5.50;99.90
30234;DHT22;17046;52.074;4.748;2022-12-18T06:02:02;-5.60;99.90
30234;DHT22;17046;52.074;4.748;2022-12-18T06:04:31;-5.60;99.90
30234;DHT22;17046;52.074;4.748;2022-12-18T06:06:58;-5.60;99.90
30234;DHT22;17046;52.074;4.748;2022-12-18T06:09:23;-5.60;99.90
30234;DHT22;17046;52.074;4.748;2022-12-18T06:11:51;-5.60;99.90
30234;DHT22;17046;52.074;4.748;2022-12-18T06:14:17;-5.70;99.90
30234;DHT22;17046;52.074;4.748;2022-12-18T06:16:43;-5.70;99.90
30234;DHT22;17046;52.074;4.748;2022-12-18T06:19:14;-5.70;99.90
30234;DHT22;17046;52.074;4.748;2022-12-18T06:21:41;-5.70;99.90
30234;DHT22;17046;52.074;4.748;2022-12-18T06:24:07;-5.70;99.90
30234;DHT22;17046;52.074;4.748;2022-12-18T06:26:33;-5.70;99.90
30234;DHT22;17046;52.074;4.748;2022-12-18T06:28:59;-5.80;99.90
30234;DHT22;17046;52.074;4.748;2022-12-18T06:31:25;-5.80;99.90
30234;DHT22;17046;52.074;4.748;2022-12-18T06:33:51;-5.80;99.90
30234;DHT22;17046;52.074;4.748;2022-12-18T06:36:16;-5.90;99.90
30234;DHT22;17046;52.074;4.748;2022-12-18T06:38:43;-5.90;99.90
30234;DHT22;17046;52.074;4.748;2022-12-18T06:41:11;-5.90;99.90
30234;DHT22;17046;52.074;4.748;2022-12-18T06:43:37;-5.90;99.90
30234;DHT22;17046;52.074;4.748;2022-12-18T06:46:04;-5.90;99.90
30234;DHT22;17046;52.074;4.748;2022-12-18T06:48:30;-5.80;99.90
30234;DHT22;17046;52.074;4.748;2022-12-18T06:50:55;-5.90;99.90
30234;DHT22;17046;52.074;4.748;2022-12-18T06:53:21;-5.90;99.90
30234;DHT22;17046;52.074;4.748;2022-12-18T06:55:47;-5.90;99.90
30234;DHT22;17046;52.074;4.748;2022-12-18T06:58:12;-5.90;99.90
30234;DHT22;17046;52.074;4.748;2022-12-18T07:00:38;-6.00;99.90
30234;DHT22;17046;52.074;4.748;2022-12-18T07:03:04;-6.00;99.90
30234;DHT22;17046;52.074;4.748;2022-12-18T07:05:29;-6.00;99.90
30234;DHT22;17046;52.074;4.748;2022-12-18T07:07:55;-6.10;99.90
30234;DHT22;17046;52.074;4.748;2022-12-18T07:10:20;-6.10;99.90
30234;DHT22;17046;52.074;4.748;2022-12-18T07:12:46;-6.10;99.90
30234;DHT22;17046;52.074;4.748;2022-12-18T07:15:12;-6.10;99.90
30234;DHT22;17046;52.074;4.748;2022-12-18T07:17:37;-6.10;99.90
30234;DHT22;17046;52.074;4.748;2022-12-18T07:20:03;-6.10;99.90
30234;DHT22;17046;52.074;4.748;2022-12-18T07:22:29;-6.10;99.90
30234;DHT22;17046;52.074;4.748;2022-12-18T07:24:54;-6.20;99.90
30234;DHT22;17046;52.074;4.748;2022-12-18T07:27:21;-6.10;99.90
30234;DHT22;17046;52.074;4.748;2022-12-18T07:29:46;-6.00;99.90
30234;DHT22;17046;52.074;4.748;2022-12-18T07:32:12;-6.00;99.90
30234;DHT22;17046;52.074;4.748;2022-12-18T07:34:37;-6.10;99.90
30234;DHT22;17046;52.074;4.748;2022-12-18T07:37:03;-6.00;99.90
30234;DHT22;17046;52.074;4.748;2022-12-18T07:39:29;-6.00;99.90
30234;DHT22;17046;52.074;4.748;2022-12-18T07:41:54;-6.00;99.90
30234;DHT22;17046;52.074;4.748;2022-12-18T07:44:39;-6.00;99.90
30234;DHT22;17046;52.074;4.748;2022-12-18T07:47:04;-5.90;99.90
30234;DHT22;17046;52.074;4.748;2022-12-18T07:49:30;-5.90;99.90
30234;DHT22;17046;52.074;4.748;2022-12-18T07:51:56;-5.90;99.90
30234;DHT22;17046;52.074;4.748;2022-12-18T07:54:23;-5.80;99.90
30234;DHT22;17046;52.074;4.748;2022-12-18T07:56:48;-5.70;99.90
30234;DHT22;17046;52.074;4.748;2022-12-18T07:59:14;-5.70;99.90
30234;DHT22;17046;52.074;4.748;2022-12-18T08:01:40;-5.70;99.90
30234;DHT22;17046;52.074;4.748;2022-12-18T08:04:05;-5.60;99.90
30234;DHT22;17046;52.074;4.748;2022-12-18T08:06:31;-5.60;99.90
30234;DHT22;17046;52.074;4.748;2022-12-18T08:08:57;-5.50;99.90
30234;DHT22;17046;52.074;4.748;2022-12-18T08:11:24;-5.40;99.90
30234;DHT22;17046;52.074;4.748;2022-12-18T08:13:50;-5.30;99.90
30234;DHT22;17046;52.074;4.748;2022-12-18T08:16:17;-5.30;99.90
30234;DHT22;17046;52.074;4.748;2022-12-18T08:18:42;-5.30;99.90
30234;DHT22;17046;52.074;4.748;2022-12-18T08:21:19;-5.30;99.90
30234;DHT22;17046;52.074;4.748;2022-12-18T08:23:46;-5.20;99.90
30234;DHT22;17046;52.074;4.748;2022-12-18T08:26:12;-5.20;99.90
30234;DHT22;17046;52.074;4.748;2022-12-18T08:28:38;-5.10;99.90
30234;DHT22;17046;52.074;4.748;2022-12-18T08:31:04;-5.10;99.90
30234;DHT22;17046;52.074;4.748;2022-12-18T08:33:30;-5.10;99.90
30234;DHT22;17046;52.074;4.748;2022-12-18T08:35:57;-5.10;99.90
30234;DHT22;17046;52.074;4.748;2022-12-18T08:38:23;-5.10;99.90
30234;DHT22;17046;52.074;4.748;2022-12-18T08:40:48;-5.00;99.90
30234;DHT22;17046;52.074;4.748;2022-12-18T08:43:14;-5.00;99.90
30234;DHT22;17046;52.074;4.748;2022-12-18T08:45:58;-4.90;99.90
30234;DHT22;17046;52.074;4.748;2022-12-18T08:48:24;-4.90;99.90
30234;DHT22;17046;52.074;4.748;2022-12-18T08:50:56;-4.90;99.90
30234;DHT22;17046;52.074;4.748;2022-12-18T08:53:21;-4.80;99.90
30234;DHT22;17046;52.074;4.748;2022-12-18T08:55:47;-4.80;99.90
30234;DHT22;17046;52.074;4.748;2022-12-18T08:58:12;-4.70;99.90
30234;DHT22;17046;52.074;4.748;2022-12-18T09:00:38;-4.70;99.90
30234;DHT22;17046;52.074;4.748;2022-12-18T09:03:09;-4.70;99.90
30234;DHT22;17046;52.074;4.748;2022-12-18T09:05:35;-4.60;99.90
30234;DHT22;17046;52.074;4.748;2022-12-18T09:08:01;-4.60;99.90
30234;DHT22;17046;52.074;4.748;2022-12-18T09:10:26;-4.50;99.90
30234;DHT22;17046;52.074;4.748;2022-12-18T09:12:52;-4.50;99.90
30234;DHT22;17046;52.074;4.748;2022-12-18T09:15:17;-4.40;99.90
30234;DHT22;17046;52.074;4.748;2022-12-18T09:17:43;-4.30;99.90
30234;DHT22;17046;52.074;4.748;2022-12-18T09:20:09;-4.30;99.90
30234;DHT22;17046;52.074;4.748;2022-12-18T09:22:35;-4.20;99.90
30234;DHT22;17046;52.074;4.748;2022-12-18T09:25:00;-4.20;99.90
30234;DHT22;17046;52.074;4.748;2022-12-18T09:27:26;-4.20;99.90
30234;DHT22;17046;52.074;4.748;2022-12-18T09:29:51;-4.20;99.90
30234;DHT22;17046;52.074;4.748;2022-12-18T09:32:17;-4.10;99.90
30234;DHT22;17046;52.074;4.748;2022-12-18T09:34:42;-4.10;99.90
30234;DHT22;17046;52.074;4.748;2022-12-18T09:37:08;-4.00;99.90
30234;DHT22;17046;52.074;4.748;2022-12-18T09:39:33;-3.90;99.90
30234;DHT22;17046;52.074;4.748;2022-12-18T09:41:59;-3.90;99.90
30234;DHT22;17046;52.074;4.748;2022-12-18T09:44:34;-3.80;99.90
30234;DHT22;17046;52.074;4.748;2022-12-18T09:47:20;-3.70;99.90
30234;DHT22;17046;52.074;4.748;2022-12-18T09:49:55;-3.60;99.90
30234;DHT22;17046;52.074;4.748;2022-12-18T09:52:37;-3.70;99.90
30234;DHT22;17046;52.074;4.748;2022-12-18T09:55:23;-3.60;99.90
30234;DHT22;17046;52.074;4.748;2022-12-18T09:57:53;-3.60;99.90
30234;DHT22;17046;52.074;4.748;2022-12-18T10:00:22;-3.50;99.90
30234;DHT22;17046;52.074;4.748;2022-12-18T10:02:50;-3.50;99.90
30234;DHT22;17046;52.074;4.748;2022-12-18T10:08:39;-3.40;99.90
30234;DHT22;17046;52.074;4.748;2022-12-18T10:11:58;-3.40;99.90
30234;DHT22;17046;52.074;4.748;2022-12-18T10:14:52;-3.30;99.90
30234;DHT22;17046;52.074;4.748;2022-12-18T10:17:39;-3.30;99.90
30234;DHT22;17046;52.074;4.748;2022-12-18T10:20:27;-3.30;99.90
30234;DHT22;17046;52.074;4.748;2022-12-18T10:23:12;-3.20;99.90
30234;DHT22;17046;52.074;4.748;2022-12-18T10:28:21;-2.90;99.90
30234;DHT22;17046;52.074;4.748;2022-12-18T10:30:46;-2.90;99.90
30234;DHT22;17046;52.074;4.748;2022-12-18T10:33:21;-2.80;99.90
30234;DHT22;17046;52.074;4.748;2022-12-18T10:35:49;-2.80;99.90
30234;DHT22;17046;52.074;4.748;2022-12-18T10:41:03;-2.70;99.90
30234;DHT22;17046;52.074;4.748;2022-12-18T10:43:34;-2.70;99.90
30234;DHT22;17046;52.074;4.748;2022-12-18T10:51:07;-2.60;99.90
30234;DHT22;17046;52.074;4.748;2022-12-18T10:53:35;-2.40;99.90
30234;DHT22;17046;52.074;4.748;2022-12-18T10:56:03;-2.30;99.90
30234;DHT22;17046;52.074;4.748;2022-12-18T10:58:30;-2.20;99.90
30234;DHT22;17046;52.074;4.748;2022-12-18T11:03:36;-2.20;99.90
30234;DHT22;17046;52.074;4.748;2022-12-18T11:06:12;-2.10;99.90
30234;DHT22;17046;52.074;4.748;2022-12-18T11:08:38;-2.00;99.90
30234;DHT22;17046;52.074;4.748;2022-12-18T11:11:19;-2.00;99.90
30234;DHT22;17046;52.074;4.748;2022-12-18T11:13:58;-2.00;99.90
30234;DHT22;17046;52.074;4.748;2022-12-18T11:16:25;-2.00;99.90
30234;DHT22;17046;52.074;4.748;2022-12-18T11:18:51;-1.90;99.90
30234;DHT22;17046;52.074;4.748;2022-12-18T11:21:17;-1.80;99.90
30234;DHT22;17046;52.074;4.748;2022-12-18T11:23:51;-1.90;99.90
30234;DHT22;17046;52.074;4.748;2022-12-18T11:26:17;-1.80;99.90
30234;DHT22;17046;52.074;4.748;2022-12-18T11:28:51;-1.80;99.90
30234;DHT22;17046;52.074;4.748;2022-12-18T11:31:29;-1.70;99.90
30234;DHT22;17046;52.074;4.748;2022-12-18T11:36:42;-1.80;99.90
30234;DHT22;17046;52.074;4.748;2022-12-18T11:39:20;-1.70;99.90
30234;DHT22;17046;52.074;4.748;2022-12-18T11:41:56;-1.60;99.90
30234;DHT22;17046;52.074;4.748;2022-12-18T11:44:49;-1.60;99.90
30234;DHT22;17046;52.074;4.748;2022-12-18T11:47:28;-1.50;99.90
30234;DHT22;17046;52.074;4.748;2022-12-18T11:50:03;-1.60;99.90
30234;DHT22;17046;52.074;4.748;2022-12-18T11:52:40;-1.60;99.90
30234;DHT22;17046;52.074;4.748;2022-12-18T11:55:12;-1.60;99.90
30234;DHT22;17046;52.074;4.748;2022-12-18T11:57:55;-1.50;99.90
30234;DHT22;17046;52.074;4.748;2022-12-18T12:00:24;-1.40;99.90
30234;DHT22;17046;52.074;4.748;2022-12-18T12:11:15;-1.30;97.70
30234;DHT22;17046;52.074;4.748;2022-12-18T12:14:38;-1.40;97.40
30234;DHT22;17046;52.074;4.748;2022-12-18T12:19:31;-1.30;99.70
30234;DHT22;17046;52.074;4.748;2022-12-18T12:24:53;-1.10;98.10
30234;DHT22;17046;52.074;4.748;2022-12-18T12:30:05;-0.90;97.10
30234;DHT22;17046;52.074;4.748;2022-12-18T12:38:23;-1.00;91.90
30234;DHT22;17046;52.074;4.748;2022-12-18T12:41:03;-1.10;95.30
30234;DHT22;17046;52.074;4.748;2022-12-18T12:43:42;-1.00;92.20
30234;DHT22;17046;52.074;4.748;2022-12-18T12:46:14;-1.10;91.70
30234;DHT22;17046;52.074;4.748;2022-12-18T12:48:48;-1.00;95.30
30234;DHT22;17046;52.074;4.748;2022-12-18T12:51:30;-1.10;96.80
30234;DHT22;17046;52.074;4.748;2022-12-18T12:53:58;-1.00;99.90
30234;DHT22;17046;52.074;4.748;2022-12-18T12:56:29;-1.00;99.90
30234;DHT22;17046;52.074;4.748;2022-12-18T13:05:38;-0.90;92.30
30234;DHT22;17046;52.074;4.748;2022-12-18T13:07:51;-1.00;91.70
30234;DHT22;17046;52.074;4.748;2022-12-18T13:12:59;-1.00;99.80
30234;DHT22;17046;52.074;4.748;2022-12-18T13:16:06;-1.10;99.90
30234;DHT22;17046;52.074;4.748;2022-12-18T13:18:32;-1.00;99.90
30234;DHT22;17046;52.074;4.748;2022-12-18T13:31:12;-1.00;99.90
30234;DHT22;17046;52.074;4.748;2022-12-18T13:33:43;-1.10;99.90
30234;DHT22;17046;52.074;4.748;2022-12-18T13:36:23;-1.10;99.90
30234;DHT22;17046;52.074;4.748;2022-12-18T13:41:34;-1.00;99.90
30234;DHT22;17046;52.074;4.748;2022-12-18T13:44:24;-1.00;99.90
30234;DHT22;17046;52.074;4.748;2022-12-18T13:46:51;-1.00;99.90
30234;DHT22;17046;52.074;4.748;2022-12-18T13:49:43;-1.00;99.90
30234;DHT22;17046;52.074;4.748;2022-12-18T13:52:27;-1.00;99.90
30234;DHT22;17046;52.074;4.748;2022-12-18T13:54:55;-1.00;99.90
30234;DHT22;17046;52.074;4.748;2022-12-18T13:57:36;-1.00;99.90
30234;DHT22;17046;52.074;4.748;2022-12-18T14:02:47;-0.90;99.90
30234;DHT22;17046;52.074;4.748;2022-12-18T14:05:35;-0.90;99.90
30234;DHT22;17046;52.074;4.748;2022-12-18T14:08:06;-0.90;99.90
30234;DHT22;17046;52.074;4.748;2022-12-18T14:10:33;-0.80;99.90
30234;DHT22;17046;52.074;4.748;2022-12-18T14:13:05;-0.90;99.90
30234;DHT22;17046;52.074;4.748;2022-12-18T14:15:34;-0.90;99.90
30234;DHT22;17046;52.074;4.748;2022-12-18T14:18:19;-0.80;99.90
30234;DHT22;17046;52.074;4.748;2022-12-18T14:20:47;-0.70;99.90
30234;DHT22;17046;52.074;4.748;2022-12-18T14:23:34;-0.70;99.90
30234;DHT22;17046;52.074;4.748;2022-12-18T14:26:02;-0.80;99.90
30234;DHT22;17046;52.074;4.748;2022-12-18T14:28:29;-0.90;99.90
30234;DHT22;17046;52.074;4.748;2022-12-18T14:30:54;-0.90;99.90
30234;DHT22;17046;52.074;4.748;2022-12-18T14:33:26;-0.90;99.90
30234;DHT22;17046;52.074;4.748;2022-12-18T14:41:13;-0.90;99.90
30234;DHT22;17046;52.074;4.748;2022-12-18T14:43:41;-0.90;99.90
30234;DHT22;17046;52.074;4.748;2022-12-18T14:46:35;-0.80;99.90
30234;DHT22;17046;52.074;4.748;2022-12-18T14:51:54;-0.90;99.90
30234;DHT22;17046;52.074;4.748;2022-12-18T14:54:21;-0.20;99.90
30234;DHT22;17046;52.074;4.748;2022-12-18T14:56:51;-0.80;99.90
30234;DHT22;17046;52.074;4.748;2022-12-18T14:59:20;-0.80;99.90
30234;DHT22;17046;52.074;4.748;2022-12-18T15:04:39;-0.80;99.90
30234;DHT22;17046;52.074;4.748;2022-12-18T15:09:42;-0.70;99.90
30234;DHT22;17046;52.074;4.748;2022-12-18T15:12:35;-0.80;99.90
30234;DHT22;17046;52.074;4.748;2022-12-18T15:15:01;-0.70;99.90
30234;DHT22;17046;52.074;4.748;2022-12-18T15:17:26;-0.70;99.40
30234;DHT22;17046;52.074;4.748;2022-12-18T15:19:59;-0.80;99.80
30234;DHT22;17046;52.074;4.748;2022-12-18T15:22:35;-0.70;99.90
30234;DHT22;17046;52.074;4.748;2022-12-18T15:25:01;-0.70;99.00
30234;DHT22;17046;52.074;4.748;2022-12-18T15:27:33;-0.80;99.90
30234;DHT22;17046;52.074;4.748;2022-12-18T15:32:39;-0.80;99.90
30234;DHT22;17046;52.074;4.748;2022-12-18T15:35:15;-0.80;99.90
30234;DHT22;17046;52.074;4.748;2022-12-18T15:37:42;-0.80;99.90
30234;DHT22;17046;52.074;4.748;2022-12-18T15:40:15;-0.80;99.90
30234;DHT22;17046;52.074;4.748;2022-12-18T15:42:41;-0.80;99.90
30234;DHT22;17046;52.074;4.748;2022-12-18T15:45:26;-0.80;99.90
30234;DHT22;17046;52.074;4.748;2022-12-18T15:47:52;-0.80;99.90
30234;DHT22;17046;52.074;4.748;2022-12-18T15:50:18;-0.80;99.90
30234;DHT22;17046;52.074;4.748;2022-12-18T15:52:45;-0.80;99.90
30234;DHT22;17046;52.074;4.748;2022-12-18T15:55:17;-0.80;99.90
30234;DHT22;17046;52.074;4.748;2022-12-18T15:58:01;-0.80;99.90
30234;DHT22;17046;52.074;4.748;2022-12-18T16:00:27;-0.80;99.90
30234;DHT22;17046;52.074;4.748;2022-12-18T16:02:53;-0.80;99.90
30234;DHT22;17046;52.074;4.748;2022-12-18T16:05:20;-0.70;99.90
30234;DHT22;17046;52.074;4.748;2022-12-18T16:07:47;-0.70;99.90
30234;DHT22;17046;52.074;4.748;2022-12-18T16:10:12;-0.70;99.90
30234;DHT22;17046;52.074;4.748;2022-12-18T16:12:38;-0.70;99.90
30234;DHT22;17046;52.074;4.748;2022-12-18T16:15:05;-0.70;98.60
30234;DHT22;17046;52.074;4.748;2022-12-18T16:17:31;-0.70;98.20
30234;DHT22;17046;52.074;4.748;2022-12-18T16:19:57;-0.70;97.10
30234;DHT22;17046;52.074;4.748;2022-12-18T16:22:25;-0.70;95.70
30234;DHT22;17046;52.074;4.748;2022-12-18T16:24:52;-0.70;95.50
30234;DHT22;17046;52.074;4.748;2022-12-18T16:27:18;-0.60;95.80
30234;DHT22;17046;52.074;4.748;2022-12-18T16:29:44;-0.60;95.50
30234;DHT22;17046;52.074;4.748;2022-12-18T16:32:19;-0.70;96.40
30234;DHT22;17046;52.074;4.748;2022-12-18T16:34:46;-0.70;96.50
30234;DHT22;17046;52.074;4.748;2022-12-18T16:37:13;-0.60;98.10
30234;DHT22;17046;52.074;4.748;2022-12-18T16:39:40;-0.70;99.10
30234;DHT22;17046;52.074;4.748;2022-12-18T16:42:13;-0.70;99.90
30234;DHT22;17046;52.074;4.748;2022-12-18T16:44:40;-0.60;99.90
30234;DHT22;17046;52.074;4.748;2022-12-18T16:47:06;-0.60;99.90
30234;DHT22;17046;52.074;4.748;2022-12-18T16:49:32;-0.60;99.00
30234;DHT22;17046;52.074;4.748;2022-12-18T16:51:57;-0.60;98.50
30234;DHT22;17046;52.074;4.748;2022-12-18T16:54:23;-0.60;99.40
30234;DHT22;17046;52.074;4.748;2022-12-18T16:56:50;-0.50;99.20
30234;DHT22;17046;52.074;4.748;2022-12-18T16:59:15;-0.50;96.30
30234;DHT22;17046;52.074;4.748;2022-12-18T17:01:41;-0.50;94.40
30234;DHT22;17046;52.074;4.748;2022-12-18T17:04:08;-0.50;94.00
30234;DHT22;17046;52.074;4.748;2022-12-18T17:06:38;-0.50;94.20
30234;DHT22;17046;52.074;4.748;2022-12-18T17:09:06;-0.50;92.10
30234;DHT22;17046;52.074;4.748;2022-12-18T17:11:35;-0.50;91.50
30234;DHT22;17046;52.074;4.748;2022-12-18T17:14:09;-0.40;87.90
30234;DHT22;17046;52.074;4.748;2022-12-18T17:16:35;-0.40;88.20
30234;DHT22;17046;52.074;4.748;2022-12-18T17:19:00;-0.40;85.60
30234;DHT22;17046;52.074;4.748;2022-12-18T17:21:26;-0.40;83.20
30234;DHT22;17046;52.074;4.748;2022-12-18T17:23:51;-0.40;85.80
30234;DHT22;17046;52.074;4.748;2022-12-18T17:26:17;-0.30;84.20
30234;DHT22;17046;52.074;4.748;2022-12-18T17:28:44;-0.30;80.90
30234;DHT22;17046;52.074;4.748;2022-12-18T17:31:21;-0.30;79.40